Time;durP1;ratioP1;P1;durP2;ratioP2;P2;SDS_P1;SDS_P2;PMS_P1;PMS_P2;Temp;Humidity;BMP_temperature;BMP_pressure;BME280_temperature;BME280_humidity;BME280_pressure;Samples;Min_cycle;Max_cycle;Signal;HPM_P1;HPM_P2
2021/04/19 00:00:11;;;;;;;;;;;16.10;99.90;;;;;;4994018;28;19918;-70
2021/04/19 00:02:38;;;;;;;;;;;16.10;99.90;;;;;;4994497;28;19914;-69
2021/04/19 00:05:06;;;;;;;;;;;16.20;99.90;;;;;;4993792;28;19914;-70
2021/04/19 00:07:33;;;;;;;;;;;16.20;99.90;;;;;;4995301;28;20036;-70
2021/04/19 00:10:00;;;;;;;;;;;16.30;99.90;;;;;;5013601;28;19917;-70
2021/04/19 00:12:26;;;;;;;;;;;16.30;99.90;;;;;;5012649;28;19913;-69
2021/04/19 00:14:53;;;;;;;;;;;16.40;99.90;;;;;;5013014;28;20378;-69
2021/04/19 00:17:20;;;;;;;;;;;16.50;99.90;;;;;;5013488;28;19936;-69
2021/04/19 00:19:46;;;;;;;;;;;16.60;99.90;;;;;;5005825;28;19914;-70
2021/04/19 00:22:13;;;;;;;;;;;16.70;99.90;;;;;;4993915;28;19945;-70
2021/04/19 00:24:40;;;;;;;;;;;16.70;99.90;;;;;;4993631;28;19925;-69
2021/04/19 00:27:06;;;;;;;;;;;16.80;99.90;;;;;;4993557;28;19964;-70
2021/04/19 00:29:33;;;;;;;;;;;16.80;99.70;;;;;;4993338;28;19918;-69
2021/04/19 00:32:00;;;;;;;;;;;16.90;99.80;;;;;;5011805;28;19915;-69
2021/04/19 00:34:27;;;;;;;;;;;16.90;99.80;;;;;;5013213;28;19914;-68
2021/04/19 00:36:53;;;;;;;;;;;16.90;99.30;;;;;;5008865;28;19910;-70
2021/04/19 00:39:20;;;;;;;;;;;16.90;99.70;;;;;;4993720;28;19913;-69
2021/04/19 00:41:47;;;;;;;;;;;17.00;99.90;;;;;;4993557;28;19910;-71
2021/04/19 00:44:14;;;;;;;;;;;17.10;99.20;;;;;;4995481;28;20249;-70
2021/04/19 00:46:40;;;;;;;;;;;17.10;99.20;;;;;;4994276;28;19924;-71
2021/04/19 00:49:07;;;;;;;;;;;17.20;98.60;;;;;;4993252;28;19953;-69
2021/04/19 00:51:34;;;;;;;;;;;17.20;98.50;;;;;;4976043;28;19960;-70
2021/04/19 00:54:01;;;;;;;;;;;17.40;97.20;;;;;;4993407;28;20020;-71
2021/04/19 00:56:31;;;;;;;;;;;17.50;97.40;;;;;;5009266;28;19933;-71
2021/04/19 00:58:58;;;;;;;;;;;17.60;97.80;;;;;;5012663;28;19918;-70
2021/04/19 01:01:26;;;;;;;;;;;17.60;97.80;;;;;;5012836;28;19916;-70
2021/04/19 01:03:53;;;;;;;;;;;17.80;97.50;;;;;;5004206;28;19909;-71
2021/04/19 01:06:20;;;;;;;;;;;17.90;96.80;;;;;;4993309;28;19921;-70
2021/04/19 01:08:46;;;;;;;;;;;18.00;96.50;;;;;;4993273;28;20329;-69
2021/04/19 01:11:13;;;;;;;;;;;18.30;96.50;;;;;;4993343;28;19913;-71
2021/04/19 01:13:39;;;;;;;;;;;18.50;95.90;;;;;;4993421;28;20005;-71
2021/04/19 01:16:06;;;;;;;;;;;18.60;95.50;;;;;;4995818;28;19916;-70
2021/04/19 01:18:33;;;;;;;;;;;18.80;93.80;;;;;;5013156;28;19914;-72
2021/04/19 01:21:00;;;;;;;;;;;19.40;92.70;;;;;;5012604;28;20307;-71
2021/04/19 01:23:26;;;;;;;;;;;19.60;92.80;;;;;;4999044;28;19910;-71
2021/04/19 01:25:53;;;;;;;;;;;19.50;92.50;;;;;;4984813;28;19922;-70
2021/04/19 01:28:20;;;;;;;;;;;19.50;92.30;;;;;;5001184;28;19945;-70
2021/04/19 01:30:48;;;;;;;;;;;19.50;93.00;;;;;;4995796;28;19926;-70
2021/04/19 01:33:15;;;;;;;;;;;19.60;91.80;;;;;;4994856;28;20317;-69
2021/04/19 01:35:42;;;;;;;;;;;19.70;92.70;;;;;;4997152;28;19910;-69
2021/04/19 01:38:10;;;;;;;;;;;19.40;92.90;;;;;;4998254;28;19910;-70
2021/04/19 01:40:37;;;;;;;;;;;19.30;92.90;;;;;;5015748;28;19909;-71
2021/04/19 01:43:04;;;;;;;;;;;19.20;92.90;;;;;;5015370;28;19913;-68
2021/04/19 01:45:31;;;;;;;;;;;19.10;92.70;;;;;;5015110;28;20245;-69
2021/04/19 01:47:58;;;;;;;;;;;19.10;92.80;;;;;;5015366;28;19910;-70
2021/04/19 01:50:26;;;;;;;;;;;19.10;92.70;;;;;;5015366;28;19910;-68
2021/04/19 01:52:54;;;;;;;;;;;19.10;92.30;;;;;;5014770;28;19988;-71
2021/04/19 01:55:21;;;;;;;;;;;19.00;92.60;;;;;;5015322;28;19916;-69
2021/04/19 01:57:57;;;;;;;;;;;19.00;93.10;;;;;;5014895;28;19964;-71
2021/04/19 02:00:25;;;;;;;;;;;19.10;92.50;;;;;;5015219;28;19910;-68
2021/04/19 02:03:03;;;;;;;;;;;19.20;92.50;;;;;;5015181;28;19910;-68
2021/04/19 02:05:48;;;;;;;;;;;19.20;92.50;;;;;;5028681;28;20290;-67
2021/04/19 02:08:30;;;;;;;;;;;19.20;91.90;;;;;;5035528;28;19909;-69
2021/04/19 02:10:58;;;;;;;;;;;19.10;92.50;;;;;;5035193;28;19972;-70
2021/04/19 02:13:28;;;;;;;;;;;19.20;92.30;;;;;;5019982;28;19913;-70
2021/04/19 02:15:54;;;;;;;;;;;19.20;93.10;;;;;;5015878;28;19914;-69
2021/04/19 02:18:33;;;;;;;;;;;19.40;92.50;;;;;;5012119;28;19910;-69
2021/04/19 02:21:05;;;;;;;;;;;19.70;90.90;;;;;;4996066;28;19958;-69
2021/04/19 02:23:36;;;;;;;;;;;19.60;90.20;;;;;;4996246;28;19917;-69
2021/04/19 02:26:23;;;;;;;;;;;19.50;90.20;;;;;;5015434;28;19928;-70
2021/04/19 02:28:59;;;;;;;;;;;19.50;90.10;;;;;;5015433;28;19940;-71
2021/04/19 02:31:26;;;;;;;;;;;19.50;89.40;;;;;;5006378;28;19921;-70
2021/04/19 02:33:54;;;;;;;;;;;19.50;89.60;;;;;;5013957;28;19944;-72
2021/04/19 02:36:21;;;;;;;;;;;19.50;90.20;;;;;;5014873;28;19914;-71
2021/04/19 02:38:51;;;;;;;;;;;19.50;90.10;;;;;;5015037;28;19916;-71
2021/04/19 02:41:19;;;;;;;;;;;19.50;90.00;;;;;;5015637;28;20003;-70
2021/04/19 02:43:47;;;;;;;;;;;19.50;90.70;;;;;;5014012;28;19945;-70
2021/04/19 02:46:15;;;;;;;;;;;19.70;90.30;;;;;;5015123;28;19922;-68
2021/04/19 02:48:42;;;;;;;;;;;19.70;89.80;;;;;;5018057;28;19936;-70
2021/04/19 02:51:09;;;;;;;;;;;19.70;89.00;;;;;;5017257;28;19919;-71
2021/04/19 02:53:37;;;;;;;;;;;19.70;90.50;;;;;;5016320;28;19952;-70
2021/04/19 02:56:07;;;;;;;;;;;19.80;89.10;;;;;;5009957;28;19913;-71
2021/04/19 02:58:38;;;;;;;;;;;19.90;90.50;;;;;;5011869;28;19920;-71
2021/04/19 03:01:06;;;;;;;;;;;20.10;90.30;;;;;;5016427;28;19920;-70
2021/04/19 03:03:34;;;;;;;;;;;20.10;90.10;;;;;;5015602;28;19914;-69
2021/04/19 03:06:01;;;;;;;;;;;20.00;90.10;;;;;;5015788;28;19922;-69
2021/04/19 03:08:30;;;;;;;;;;;19.80;90.20;;;;;;5017562;28;19911;-70
2021/04/19 03:11:08;;;;;;;;;;;19.80;90.90;;;;;;5019478;28;19910;-70
2021/04/19 03:13:37;;;;;;;;;;;19.80;91.70;;;;;;5017776;28;19914;-70
2021/04/19 03:16:04;;;;;;;;;;;19.80;92.00;;;;;;5014277;28;19913;-69
2021/04/19 03:18:33;;;;;;;;;;;19.80;92.30;;;;;;5014090;28;19988;-70
2021/04/19 03:21:02;;;;;;;;;;;19.90;92.30;;;;;;5014343;28;20348;-68
2021/04/19 03:23:30;;;;;;;;;;;19.90;92.50;;;;;;5001559;28;19910;-70
2021/04/19 03:25:57;;;;;;;;;;;19.90;92.70;;;;;;5000662;28;19936;-70
2021/04/19 03:28:25;;;;;;;;;;;19.90;92.70;;;;;;5033869;28;19963;-69
2021/04/19 03:30:52;;;;;;;;;;;20.10;92.70;;;;;;5033590;28;19923;-68
2021/04/19 03:33:20;;;;;;;;;;;20.00;92.50;;;;;;5014462;28;20012;-70
2021/04/19 03:35:47;;;;;;;;;;;20.00;92.60;;;;;;5013857;28;20268;-68
2021/04/19 03:38:15;;;;;;;;;;;19.90;92.30;;;;;;5013591;28;20028;-69
2021/04/19 03:40:42;;;;;;;;;;;19.90;92.80;;;;;;5013407;28;19914;-68
2021/04/19 03:43:13;;;;;;;;;;;20.00;92.80;;;;;;5013646;28;20343;-69
2021/04/19 03:45:41;;;;;;;;;;;20.00;92.90;;;;;;5013569;28;19956;-68
2021/04/19 03:48:15;;;;;;;;;;;20.00;92.50;;;;;;5013030;28;19913;-70
2021/04/19 03:50:46;;;;;;;;;;;20.00;92.90;;;;;;5012728;28;20024;-69
2021/04/19 03:53:14;;;;;;;;;;;20.00;92.80;;;;;;5013623;28;20004;-68
2021/04/19 03:55:43;;;;;;;;;;;19.80;93.60;;;;;;5013792;28;19948;-69
2021/04/19 03:58:11;;;;;;;;;;;20.00;92.80;;;;;;5013229;28;19957;-69
2021/04/19 04:00:39;;;;;;;;;;;20.00;92.80;;;;;;5013859;28;20372;-70
2021/04/19 04:03:08;;;;;;;;;;;20.10;92.90;;;;;;5010358;28;19920;-68
2021/04/19 04:05:35;;;;;;;;;;;20.10;92.50;;;;;;5012884;28;20280;-69
2021/04/19 04:08:02;;;;;;;;;;;20.10;92.80;;;;;;5013399;28;19913;-70
2021/04/19 04:10:29;;;;;;;;;;;20.10;93.00;;;;;;5013500;28;20015;-69
2021/04/19 04:12:56;;;;;;;;;;;20.10;93.10;;;;;;4994888;28;19917;-68
2021/04/19 04:15:23;;;;;;;;;;;20.10;93.30;;;;;;5008915;28;19914;-70
2021/04/19 04:17:49;;;;;;;;;;;20.20;93.40;;;;;;5012850;28;19914;-69
2021/04/19 04:20:16;;;;;;;;;;;20.10;93.60;;;;;;5013434;28;19909;-69
2021/04/19 04:22:43;;;;;;;;;;;20.10;94.40;;;;;;5011876;28;19949;-69
2021/04/19 04:25:10;;;;;;;;;;;20.20;94.80;;;;;;5013132;28;19925;-70
2021/04/19 04:27:37;;;;;;;;;;;20.20;95.00;;;;;;5012284;28;20288;-70
2021/04/19 04:30:04;;;;;;;;;;;20.20;95.30;;;;;;5000053;28;19957;-69
2021/04/19 04:32:30;;;;;;;;;;;20.10;95.60;;;;;;5012139;28;20225;-68
2021/04/19 04:34:57;;;;;;;;;;;20.10;95.80;;;;;;5011844;28;19921;-68
2021/04/19 04:37:24;;;;;;;;;;;20.10;95.90;;;;;;4987018;28;19909;-68
2021/04/19 04:39:50;;;;;;;;;;;20.10;96.00;;;;;;5013302;28;20295;-68
2021/04/19 04:42:18;;;;;;;;;;;20.00;96.20;;;;;;4995438;28;20357;-69
2021/04/19 04:44:47;;;;;;;;;;;20.00;96.50;;;;;;4976061;28;19918;-68
2021/04/19 04:47:19;;;;;;;;;;;19.90;96.80;;;;;;5003518;28;19921;-70
2021/04/19 04:50:02;;;;;;;;;;;19.90;97.10;;;;;;5037880;28;19909;-69
2021/04/19 04:52:31;;;;;;;;;;;19.90;97.50;;;;;;5023660;28;20364;-68
2021/04/19 04:54:58;;;;;;;;;;;19.90;98.10;;;;;;5008778;28;20360;-70
2021/04/19 04:57:28;;;;;;;;;;;19.90;98.10;;;;;;5019737;28;19910;-68
2021/04/19 04:59:55;;;;;;;;;;;19.90;98.60;;;;;;5018417;28;20028;-70
2021/04/19 05:02:22;;;;;;;;;;;19.90;98.50;;;;;;5019965;28;19913;-69
2021/04/19 05:04:52;;;;;;;;;;;19.90;98.70;;;;;;5020658;28;19927;-70
2021/04/19 05:07:19;;;;;;;;;;;19.90;98.30;;;;;;5020082;28;19922;-69
2021/04/19 05:09:49;;;;;;;;;;;19.90;98.60;;;;;;5019979;28;20357;-69
2021/04/19 05:12:16;;;;;;;;;;;19.90;98.60;;;;;;5019589;28;19921;-69
2021/04/19 05:14:55;;;;;;;;;;;19.80;98.70;;;;;;5002644;28;19964;-71
2021/04/19 05:17:22;;;;;;;;;;;19.80;98.90;;;;;;5018508;28;20276;-69
2021/04/19 05:19:49;;;;;;;;;;;19.80;98.90;;;;;;5016539;28;19925;-69
2021/04/19 05:22:15;;;;;;;;;;;19.90;99.00;;;;;;5015834;28;19921;-70
2021/04/19 05:24:42;;;;;;;;;;;19.80;99.00;;;;;;5016143;28;19921;-70
2021/04/19 05:27:11;;;;;;;;;;;19.80;99.40;;;;;;5015537;28;20004;-69
2021/04/19 05:29:38;;;;;;;;;;;19.80;99.70;;;;;;5014565;28;19921;-69
2021/04/19 05:32:05;;;;;;;;;;;19.80;99.70;;;;;;5015428;28;20280;-67
2021/04/19 05:34:32;;;;;;;;;;;19.70;99.90;;;;;;5015410;28;19949;-70
2021/04/19 05:37:00;;;;;;;;;;;19.80;99.90;;;;;;5015662;28;19918;-69
2021/04/19 05:39:27;;;;;;;;;;;19.90;99.90;;;;;;5015064;28;19913;-69
2021/04/19 05:41:54;;;;;;;;;;;19.70;99.90;;;;;;5015835;28;19909;-68
2021/04/19 05:44:21;;;;;;;;;;;19.80;99.90;;;;;;5015822;28;20356;-69
2021/04/19 05:46:47;;;;;;;;;;;19.60;99.90;;;;;;5011539;28;19919;-69
2021/04/19 05:49:14;;;;;;;;;;;19.70;99.90;;;;;;5015620;28;19936;-70
2021/04/19 05:51:43;;;;;;;;;;;19.70;99.90;;;;;;5016125;28;19917;-69
2021/04/19 05:54:10;;;;;;;;;;;19.60;99.90;;;;;;5009663;28;20292;-70
2021/04/19 05:56:37;;;;;;;;;;;19.60;99.90;;;;;;5013267;28;19913;-72
2021/04/19 05:59:24;;;;;;;;;;;19.60;99.90;;;;;;5015728;28;19914;-69
2021/04/19 06:01:53;;;;;;;;;;;19.50;99.90;;;;;;5012611;28;19921;-69
2021/04/19 06:04:27;;;;;;;;;;;19.50;99.90;;;;;;5016173;28;19910;-70
2021/04/19 06:06:59;;;;;;;;;;;19.50;99.90;;;;;;5014849;28;19917;-70
2021/04/19 06:09:46;;;;;;;;;;;19.50;99.90;;;;;;5015714;28;20370;-69
2021/04/19 06:12:17;;;;;;;;;;;19.40;99.90;;;;;;5004203;28;20379;-69
2021/04/19 06:14:45;;;;;;;;;;;19.40;99.90;;;;;;5006539;28;20364;-68
2021/04/19 06:17:13;;;;;;;;;;;19.40;99.90;;;;;;5015865;28;19959;-70
2021/04/19 06:19:43;;;;;;;;;;;19.40;99.90;;;;;;5015594;28;19910;-69
2021/04/19 06:22:14;;;;;;;;;;;19.40;99.90;;;;;;4996599;28;19921;-70
2021/04/19 06:24:44;;;;;;;;;;;19.40;99.90;;;;;;5015213;28;19940;-72
2021/04/19 06:27:10;;;;;;;;;;;19.40;99.90;;;;;;5014698;28;20356;-71
2021/04/19 06:29:37;;;;;;;;;;;19.40;99.90;;;;;;5014795;28;19921;-71
2021/04/19 06:32:04;;;;;;;;;;;19.30;99.90;;;;;;4997594;28;19918;-71
2021/04/19 06:34:31;;;;;;;;;;;19.30;99.90;;;;;;5012306;28;19921;-72
2021/04/19 06:36:57;;;;;;;;;;;19.30;99.90;;;;;;5014503;28;20338;-72
2021/04/19 06:39:24;;;;;;;;;;;19.20;99.90;;;;;;4997021;28;19913;-72
2021/04/19 06:41:51;;;;;;;;;;;19.20;99.90;;;;;;5014679;28;20000;-72
2021/04/19 06:44:18;;;;;;;;;;;19.10;99.90;;;;;;5014837;28;19964;-72
2021/04/19 06:46:45;;;;;;;;;;;19.10;99.90;;;;;;5015017;28;20316;-73
2021/04/19 06:49:13;;;;;;;;;;;19.10;99.90;;;;;;5015047;28;19960;-72
2021/04/19 06:51:40;;;;;;;;;;;19.00;99.90;;;;;;5015271;28;20315;-71
2021/04/19 06:54:07;;;;;;;;;;;19.10;99.90;;;;;;5015661;28;19909;-70
2021/04/19 06:56:41;;;;;;;;;;;19.10;99.90;;;;;;5005424;28;19910;-72
2021/04/19 06:59:13;;;;;;;;;;;19.00;99.90;;;;;;5006532;28;19914;-71
2021/04/19 07:01:41;;;;;;;;;;;19.00;99.90;;;;;;5014731;28;20003;-70
2021/04/19 07:04:13;;;;;;;;;;;19.00;99.90;;;;;;5014355;28;20389;-72
2021/04/19 07:06:40;;;;;;;;;;;18.90;99.90;;;;;;5014238;28;20384;-71
2021/04/19 07:09:36;;;;;;;;;;;18.90;99.90;;;;;;5012909;28;19937;-71
2021/04/19 07:12:17;;;;;;;;;;;18.80;99.90;;;;;;4997382;28;19981;-71
2021/04/19 07:14:45;;;;;;;;;;;18.80;99.90;;;;;;5013879;28;19913;-71
2021/04/19 07:17:11;;;;;;;;;;;18.70;99.90;;;;;;5013159;28;19991;-71
2021/04/19 07:19:39;;;;;;;;;;;18.70;99.90;;;;;;5012478;28;19965;-70
2021/04/19 07:22:06;;;;;;;;;;;18.60;99.90;;;;;;4996960;28;20016;-71
2021/04/19 07:24:34;;;;;;;;;;;18.50;99.90;;;;;;5014502;28;19996;-70
2021/04/19 07:27:05;;;;;;;;;;;18.50;99.90;;;;;;5013951;28;19921;-72
2021/04/19 07:29:31;;;;;;;;;;;18.50;99.90;;;;;;5013892;28;19929;-72
2021/04/19 07:32:01;;;;;;;;;;;18.50;99.90;;;;;;5013310;28;20004;-70
2021/04/19 07:34:29;;;;;;;;;;;18.50;99.90;;;;;;5014405;28;19914;-73
2021/04/19 07:36:57;;;;;;;;;;;18.40;99.90;;;;;;5011466;28;20362;-71
2021/04/19 07:39:25;;;;;;;;;;;18.40;99.90;;;;;;5011167;28;19914;-70
2021/04/19 07:41:52;;;;;;;;;;;18.30;99.90;;;;;;5011646;28;19917;-71
2021/04/19 07:44:39;;;;;;;;;;;18.30;99.90;;;;;;5008309;28;19939;-71
2021/04/19 07:47:24;;;;;;;;;;;18.30;99.90;;;;;;5000911;28;20378;-71
2021/04/19 07:50:00;;;;;;;;;;;18.30;99.90;;;;;;4991743;28;20008;-70
2021/04/19 07:52:27;;;;;;;;;;;18.20;99.90;;;;;;4991861;28;19914;-69
2021/04/19 07:55:06;;;;;;;;;;;18.20;99.90;;;;;;4997833;28;19917;-71
2021/04/19 07:57:33;;;;;;;;;;;18.30;99.90;;;;;;5011155;28;20063;-69
2021/04/19 08:00:00;;;;;;;;;;;18.20;99.90;;;;;;4992149;28;19967;-69
2021/04/19 08:02:26;;;;;;;;;;;18.20;99.90;;;;;;4992073;28;19953;-70
2021/04/19 08:04:54;;;;;;;;;;;18.20;99.90;;;;;;4996704;28;19981;-71
2021/04/19 08:07:24;;;;;;;;;;;18.20;99.90;;;;;;5011147;28;20272;-70
2021/04/19 08:09:54;;;;;;;;;;;18.20;99.90;;;;;;5011582;28;19913;-72
2021/04/19 08:12:30;;;;;;;;;;;18.20;99.90;;;;;;5011262;28;19910;-71
2021/04/19 08:14:57;;;;;;;;;;;18.20;99.90;;;;;;5010959;28;20039;-69
2021/04/19 08:17:27;;;;;;;;;;;18.20;99.90;;;;;;5011313;28;19913;-72
2021/04/19 08:19:54;;;;;;;;;;;18.20;99.90;;;;;;5011395;28;19913;-68
2021/04/19 08:22:23;;;;;;;;;;;18.10;99.90;;;;;;4992403;28;19913;-70
2021/04/19 08:24:50;;;;;;;;;;;18.10;99.90;;;;;;4990246;28;20390;-69
2021/04/19 08:27:21;;;;;;;;;;;18.10;99.90;;;;;;5002517;28;20327;-70
2021/04/19 08:29:49;;;;;;;;;;;18.10;99.90;;;;;;5010902;28;20311;-69
2021/04/19 08:32:22;;;;;;;;;;;18.10;99.90;;;;;;5010673;28;19914;-70
2021/04/19 08:34:50;;;;;;;;;;;18.10;99.90;;;;;;5010268;28;19959;-69
2021/04/19 08:37:20;;;;;;;;;;;18.00;99.90;;;;;;5010838;28;19917;-69
2021/04/19 08:39:48;;;;;;;;;;;18.00;99.90;;;;;;5011191;28;19996;-69
2021/04/19 08:42:14;;;;;;;;;;;18.00;99.90;;;;;;5010488;28;19967;-69
2021/04/19 08:44:42;;;;;;;;;;;18.00;99.90;;;;;;5010743;28;20295;-69
2021/04/19 08:47:11;;;;;;;;;;;18.00;99.90;;;;;;5010500;28;19963;-70
2021/04/19 08:49:40;;;;;;;;;;;18.00;99.90;;;;;;5011115;28;19917;-69
2021/04/19 08:52:10;;;;;;;;;;;18.00;99.90;;;;;;5011274;28;19918;-70
2021/04/19 08:54:36;;;;;;;;;;;17.90;99.90;;;;;;5011273;28;19910;-69
2021/04/19 08:57:03;;;;;;;;;;;17.90;99.90;;;;;;5010039;28;19924;-69
2021/04/19 08:59:32;;;;;;;;;;;17.90;99.90;;;;;;5011030;28;20000;-71
2021/04/19 09:01:59;;;;;;;;;;;17.90;99.90;;;;;;5010394;28;20356;-71
2021/04/19 09:04:26;;;;;;;;;;;17.90;99.90;;;;;;5010972;28;19960;-69
2021/04/19 09:06:54;;;;;;;;;;;17.90;99.90;;;;;;5010499;28;20273;-69
2021/04/19 09:09:40;;;;;;;;;;;17.90;99.90;;;;;;4991233;28;19909;-71
2021/04/19 09:12:09;;;;;;;;;;;17.90;99.90;;;;;;4975097;28;19956;-70
2021/04/19 09:14:37;;;;;;;;;;;17.90;99.90;;;;;;5010823;28;19989;-71
2021/04/19 09:17:04;;;;;;;;;;;17.80;99.90;;;;;;5008427;28;19922;-69
2021/04/19 09:19:31;;;;;;;;;;;17.80;99.90;;;;;;4991595;28;19993;-70
2021/04/19 09:22:14;;;;;;;;;;;17.80;99.90;;;;;;4991068;28;19937;-70
2021/04/19 09:25:01;;;;;;;;;;;17.80;99.90;;;;;;5004602;28;20015;-71
2021/04/19 09:27:46;;;;;;;;;;;17.80;99.90;;;;;;4999888;28;20388;-69
2021/04/19 09:30:35;;;;;;;;;;;17.70;99.90;;;;;;5010255;28;20008;-71
2021/04/19 09:33:05;;;;;;;;;;;17.80;99.90;;;;;;5010241;28;19917;-70
2021/04/19 09:35:44;;;;;;;;;;;17.80;99.90;;;;;;5003129;28;19928;-70
2021/04/19 09:38:15;;;;;;;;;;;17.80;99.90;;;;;;5010521;28;20279;-71
2021/04/19 09:40:54;;;;;;;;;;;17.70;99.90;;;;;;5005846;28;19914;-69
2021/04/19 09:43:31;;;;;;;;;;;17.70;99.90;;;;;;4992929;28;19913;-71
2021/04/19 09:45:59;;;;;;;;;;;17.70;99.90;;;;;;4999272;28;20297;-70
2021/04/19 09:48:28;;;;;;;;;;;17.70;99.90;;;;;;4999968;28;19949;-71
2021/04/19 09:50:56;;;;;;;;;;;17.60;99.90;;;;;;4994565;28;19914;-70
2021/04/19 09:53:23;;;;;;;;;;;17.60;99.90;;;;;;4994618;28;19917;-71
2021/04/19 09:55:50;;;;;;;;;;;17.60;99.90;;;;;;4993822;28;19910;-71
2021/04/19 09:58:20;;;;;;;;;;;17.60;99.90;;;;;;5012381;28;19917;-71
2021/04/19 10:00:54;;;;;;;;;;;17.60;99.90;;;;;;5012400;28;20052;-73
2021/04/19 10:03:21;;;;;;;;;;;17.60;99.90;;;;;;5013257;28;20019;-73
2021/04/19 10:05:49;;;;;;;;;;;17.60;99.90;;;;;;5012877;28;19997;-72
2021/04/19 10:08:15;;;;;;;;;;;17.60;99.90;;;;;;5013028;28;19917;-73
2021/04/19 10:10:43;;;;;;;;;;;17.60;99.90;;;;;;5013269;28;19917;-73
2021/04/19 10:13:09;;;;;;;;;;;17.60;99.90;;;;;;5012760;28;19917;-72
2021/04/19 10:15:36;;;;;;;;;;;17.60;99.90;;;;;;5012266;28;20402;-72
2021/04/19 10:18:12;;;;;;;;;;;17.60;99.90;;;;;;5013787;28;19910;-72
2021/04/19 10:20:38;;;;;;;;;;;17.60;99.90;;;;;;5013722;28;19915;-73
2021/04/19 10:23:12;;;;;;;;;;;17.60;99.90;;;;;;5013817;28;19975;-73
2021/04/19 10:25:46;;;;;;;;;;;17.60;99.90;;;;;;5013942;28;20016;-71
2021/04/19 10:28:25;;;;;;;;;;;17.70;99.90;;;;;;5013989;28;19960;-73
2021/04/19 10:30:51;;;;;;;;;;;17.70;99.90;;;;;;5013455;28;19932;-72
2021/04/19 10:33:27;;;;;;;;;;;17.70;99.90;;;;;;5013554;28;20633;-73
2021/04/19 10:35:54;;;;;;;;;;;17.70;99.90;;;;;;5004525;28;20602;-73
2021/04/19 10:38:26;;;;;;;;;;;17.70;99.90;;;;;;5012557;28;20584;-72
2021/04/19 10:41:02;;;;;;;;;;;17.60;99.90;;;;;;5009266;28;20272;-73
2021/04/19 10:43:29;;;;;;;;;;;17.60;99.90;;;;;;5014213;28;19940;-72
2021/04/19 10:45:55;;;;;;;;;;;17.50;99.90;;;;;;5012847;28;20324;-72
2021/04/19 10:48:24;;;;;;;;;;;17.50;99.90;;;;;;5013170;28;19917;-74
2021/04/19 10:50:55;;;;;;;;;;;17.50;99.90;;;;;;5011759;28;20257;-75
2021/04/19 10:53:33;;;;;;;;;;;17.50;99.90;;;;;;5007006;28;20020;-72
2021/04/19 10:56:00;;;;;;;;;;;17.50;99.90;;;;;;4997427;28;19925;-72
2021/04/19 10:58:30;;;;;;;;;;;17.40;99.90;;;;;;4980572;28;19949;-73
2021/04/19 11:00:58;;;;;;;;;;;17.40;99.90;;;;;;4993229;28;19921;-73
2021/04/19 11:03:32;;;;;;;;;;;17.30;99.90;;;;;;4997656;28;19909;-72
2021/04/19 11:06:03;;;;;;;;;;;17.30;99.90;;;;;;4999527;28;20004;-74
2021/04/19 11:08:49;;;;;;;;;;;17.20;99.90;;;;;;5008083;28;19910;-72
2021/04/19 11:11:29;;;;;;;;;;;17.10;99.90;;;;;;5011762;28;19918;-73
2021/04/19 11:14:08;;;;;;;;;;;17.10;99.90;;;;;;5009962;28;19964;-72
2021/04/19 11:16:35;;;;;;;;;;;17.10;99.90;;;;;;4993179;28;19941;-74
2021/04/19 11:19:02;;;;;;;;;;;17.10;99.90;;;;;;4998994;28;19914;-71
2021/04/19 11:21:29;;;;;;;;;;;17.10;99.90;;;;;;4991466;28;19918;-71
2021/04/19 11:24:06;;;;;;;;;;;17.10;99.90;;;;;;5003156;28;19945;-71
2021/04/19 11:26:33;;;;;;;;;;;17.10;99.90;;;;;;5014710;28;19917;-70
2021/04/19 11:29:00;;;;;;;;;;;17.00;99.90;;;;;;5010962;28;20000;-72
2021/04/19 11:31:38;;;;;;;;;;;17.00;99.90;;;;;;5021830;28;20273;-71
2021/04/19 11:34:06;;;;;;;;;;;17.00;99.90;;;;;;5022413;28;19924;-70
2021/04/19 11:36:40;;;;;;;;;;;16.90;99.90;;;;;;5021144;28;20368;-72
2021/04/19 11:39:20;;;;;;;;;;;16.90;99.90;;;;;;5015020;28;19983;-71
2021/04/19 11:41:47;;;;;;;;;;;16.90;99.90;;;;;;5009643;28;19909;-72
2021/04/19 11:44:15;;;;;;;;;;;16.80;99.90;;;;;;5018119;28;19917;-73
2021/04/19 11:46:42;;;;;;;;;;;16.80;99.90;;;;;;5017670;28;19932;-72
2021/04/19 11:49:13;;;;;;;;;;;16.70;99.90;;;;;;5011041;28;19917;-70
2021/04/19 11:51:40;;;;;;;;;;;16.70;99.90;;;;;;5011612;28;19910;-71
2021/04/19 11:54:07;;;;;;;;;;;16.70;99.90;;;;;;5011497;28;19913;-71
2021/04/19 11:56:33;;;;;;;;;;;16.70;99.90;;;;;;5010454;28;19913;-71
2021/04/19 11:59:00;;;;;;;;;;;16.70;99.90;;;;;;5011069;28;19914;-71
2021/04/19 12:01:27;;;;;;;;;;;16.70;99.90;;;;;;5010328;28;19967;-71
2021/04/19 12:03:55;;;;;;;;;;;16.80;99.90;;;;;;5011569;28;20253;-70
2021/04/19 12:06:23;;;;;;;;;;;16.90;99.90;;;;;;5005393;28;19926;-71
2021/04/19 12:08:50;;;;;;;;;;;16.90;99.90;;;;;;4991977;28;20422;-69
2021/04/19 12:11:20;;;;;;;;;;;16.90;99.90;;;;;;5008886;28;20052;-72
2021/04/19 12:13:47;;;;;;;;;;;16.90;99.90;;;;;;5011214;28;20223;-71
2021/04/19 12:16:15;;;;;;;;;;;17.00;99.90;;;;;;5009648;28;19992;-71
2021/04/19 12:18:42;;;;;;;;;;;17.00;99.90;;;;;;4988283;28;19925;-71
2021/04/19 12:21:08;;;;;;;;;;;17.00;99.90;;;;;;5011527;28;20138;-72
2021/04/19 12:23:35;;;;;;;;;;;17.00;99.90;;;;;;5011507;28;19913;-72
2021/04/19 12:26:02;;;;;;;;;;;17.10;99.90;;;;;;5010347;28;19932;-72
2021/04/19 12:28:29;;;;;;;;;;;17.00;99.90;;;;;;5011482;28;19941;-73
2021/04/19 12:30:56;;;;;;;;;;;17.00;99.90;;;;;;5011082;28;19951;-72
2021/04/19 12:33:26;;;;;;;;;;;17.00;99.90;;;;;;5011122;28;19919;-72
2021/04/19 12:35:52;;;;;;;;;;;17.00;99.90;;;;;;5010589;28;20055;-72
2021/04/19 12:38:19;;;;;;;;;;;16.90;99.90;;;;;;5010978;28;20322;-71
2021/04/19 12:40:46;;;;;;;;;;;16.90;99.90;;;;;;5010554;28;20287;-71
2021/04/19 12:43:13;;;;;;;;;;;16.90;99.90;;;;;;5011151;28;20296;-72
2021/04/19 12:45:40;;;;;;;;;;;16.80;99.90;;;;;;5011048;28;19948;-72
2021/04/19 12:48:08;;;;;;;;;;;16.80;99.90;;;;;;5005370;28;19964;-71
2021/04/19 12:50:36;;;;;;;;;;;16.80;99.90;;;;;;5011022;28;19955;-71
2021/04/19 12:53:06;;;;;;;;;;;16.70;99.90;;;;;;5011190;28;19920;-71
2021/04/19 12:55:33;;;;;;;;;;;16.70;99.90;;;;;;5011388;28;19910;-71
2021/04/19 12:58:00;;;;;;;;;;;16.70;99.90;;;;;;5011308;28;19941;-71
2021/04/19 13:00:27;;;;;;;;;;;16.60;99.90;;;;;;5010911;28;19913;-71
2021/04/19 13:02:54;;;;;;;;;;;16.60;99.90;;;;;;5010136;28;20356;-70
2021/04/19 13:05:21;;;;;;;;;;;16.60;99.90;;;;;;5010193;28;19921;-72
2021/04/19 13:07:50;;;;;;;;;;;16.60;99.90;;;;;;5010726;28;19916;-71
2021/04/19 13:10:17;;;;;;;;;;;16.60;99.90;;;;;;5010878;28;19917;-71
2021/04/19 13:12:44;;;;;;;;;;;16.60;99.90;;;;;;5010546;28;19932;-72
2021/04/19 13:15:11;;;;;;;;;;;16.60;99.90;;;;;;5010982;28;20472;-73
2021/04/19 13:17:39;;;;;;;;;;;16.60;99.90;;;;;;5010398;28;19920;-71
2021/04/19 13:20:06;;;;;;;;;;;16.60;99.90;;;;;;5014554;28;19967;-71
2021/04/19 13:22:33;;;;;;;;;;;16.60;99.90;;;;;;5014390;28;20378;-71
2021/04/19 13:25:00;;;;;;;;;;;16.60;99.90;;;;;;5014062;28;19932;-72
2021/04/19 13:27:27;;;;;;;;;;;16.60;99.90;;;;;;5014583;28;19917;-73
2021/04/19 13:29:53;;;;;;;;;;;16.60;99.90;;;;;;5014138;28;20013;-71
2021/04/19 13:32:20;;;;;;;;;;;16.70;99.90;;;;;;5013287;28;19920;-72
2021/04/19 13:34:47;;;;;;;;;;;16.70;99.90;;;;;;4987494;28;20304;-71
2021/04/19 13:37:14;;;;;;;;;;;16.70;99.90;;;;;;5005086;28;19928;-72
2021/04/19 13:39:41;;;;;;;;;;;16.70;99.90;;;;;;5013678;28;19914;-71
2021/04/19 13:42:07;;;;;;;;;;;16.60;99.90;;;;;;5013402;28;19947;-73
2021/04/19 13:44:35;;;;;;;;;;;16.60;99.90;;;;;;5013653;28;20376;-73
2021/04/19 13:47:01;;;;;;;;;;;16.60;99.90;;;;;;5009287;28;20382;-72
2021/04/19 13:49:28;;;;;;;;;;;16.50;99.90;;;;;;5014329;28;20647;-72
2021/04/19 13:51:55;;;;;;;;;;;16.50;99.90;;;;;;5006764;28;19914;-74
2021/04/19 13:54:22;;;;;;;;;;;16.50;99.90;;;;;;5005320;28;19913;-73
2021/04/19 13:56:48;;;;;;;;;;;16.50;99.90;;;;;;5007458;28;19964;-73
2021/04/19 13:59:15;;;;;;;;;;;16.50;99.90;;;;;;5013224;28;19916;-73
2021/04/19 14:01:41;;;;;;;;;;;16.50;99.90;;;;;;5008024;28;19913;-73
2021/04/19 14:04:08;;;;;;;;;;;16.40;99.90;;;;;;5006802;28;20029;-71
2021/04/19 14:06:35;;;;;;;;;;;16.30;99.90;;;;;;5000136;28;19972;-70
2021/04/19 14:09:01;;;;;;;;;;;16.20;99.90;;;;;;4999852;28;20013;-71
2021/04/19 14:11:28;;;;;;;;;;;16.20;99.90;;;;;;4993911;28;19920;-72
2021/04/19 14:13:55;;;;;;;;;;;16.10;99.90;;;;;;4998462;28;20020;-72
2021/04/19 14:16:22;;;;;;;;;;;16.00;99.90;;;;;;5013587;28;19955;-73
2021/04/19 14:18:49;;;;;;;;;;;16.00;99.90;;;;;;5013498;28;20102;-73
2021/04/19 14:21:15;;;;;;;;;;;15.90;99.90;;;;;;4999759;28;19910;-72
2021/04/19 14:23:42;;;;;;;;;;;16.00;99.90;;;;;;4994321;28;19944;-71
2021/04/19 14:26:09;;;;;;;;;;;16.00;99.90;;;;;;4993933;28;20365;-72